createdAt,value
2017-08-06T00:00:22.460Z,0
2017-08-06T00:01:22.562Z,0
2017-08-06T00:02:22.564Z,0
2017-08-06T00:03:22.880Z,0
2017-08-06T00:04:22.593Z,0
2017-08-06T00:05:22.540Z,0
2017-08-06T00:06:22.587Z,0
2017-08-06T00:07:22.891Z,0
2017-08-06T00:08:22.605Z,0
2017-08-06T00:09:22.885Z,0
2017-08-06T00:10:22.846Z,0
2017-08-06T00:11:22.896Z,0
2017-08-06T00:12:22.894Z,0
2017-08-06T00:13:22.946Z,0
2017-08-06T00:14:22.952Z,0
2017-08-06T00:15:22.912Z,0
2017-08-06T00:16:22.905Z,0
2017-08-06T00:17:22.596Z,0
2017-08-06T00:18:22.627Z,0
2017-08-06T00:19:22.606Z,0
2017-08-06T00:20:22.869Z,0
2017-08-06T00:21:22.921Z,0
2017-08-06T00:22:22.624Z,0
2017-08-06T00:23:22.910Z,0
2017-08-06T00:24:22.916Z,0
2017-08-06T00:25:22.792Z,0
2017-08-06T00:26:22.921Z,0
2017-08-06T00:27:22.622Z,0
2017-08-06T00:28:22.935Z,0
2017-08-06T00:29:22.925Z,0
2017-08-06T00:30:26.701Z,0
2017-08-06T00:31:22.952Z,0
2017-08-06T00:32:22.983Z,0
2017-08-06T00:33:22.947Z,0
2017-08-06T00:34:23.019Z,0
2017-08-06T00:35:23.046Z,0
2017-08-06T00:36:22.942Z,0
2017-08-06T00:37:22.947Z,0
2017-08-06T00:38:22.962Z,0
2017-08-06T00:39:22.649Z,0
2017-08-06T00:40:23.003Z,0
2017-08-06T00:41:22.959Z,0
2017-08-06T00:42:22.954Z,0
2017-08-06T00:43:22.663Z,0
2017-08-06T00:44:22.659Z,0
2017-08-06T00:45:23.068Z,0
2017-08-06T00:46:22.966Z,0
2017-08-06T00:47:22.972Z,0
2017-08-06T00:48:22.717Z,0
2017-08-06T00:49:22.721Z,0
2017-08-06T00:50:23.094Z,0
2017-08-06T00:51:22.972Z,0
2017-08-06T00:52:22.999Z,0
2017-08-06T00:53:22.680Z,0
2017-08-06T00:54:23.025Z,0
2017-08-06T00:55:22.702Z,0
2017-08-06T00:56:22.686Z,0
2017-08-06T00:57:22.999Z,0
2017-08-06T00:58:22.986Z,0
2017-08-06T00:59:22.697Z,0
2017-08-06T01:00:25.023Z,0
2017-08-06T01:01:22.997Z,0
2017-08-06T01:02:23.004Z,0
2017-08-06T01:03:22.701Z,0
2017-08-06T01:04:23.014Z,0
2017-08-06T01:05:23.011Z,0
2017-08-06T01:06:23.006Z,0
2017-08-06T01:07:23.002Z,0
2017-08-06T01:08:23.004Z,0
2017-08-06T01:09:23.007Z,0
2017-08-06T01:10:23.095Z,0
2017-08-06T01:11:23.010Z,0
2017-08-06T01:12:22.723Z,0
2017-08-06T01:13:23.017Z,0
2017-08-06T01:14:23.016Z,0
2017-08-06T01:15:23.041Z,0
2017-08-06T01:16:22.725Z,0
2017-08-06T01:17:23.026Z,0
2017-08-06T01:18:22.724Z,0
2017-08-06T01:19:23.038Z,0
2017-08-06T01:20:22.797Z,0
2017-08-06T01:21:22.429Z,0
2017-08-06T01:22:22.735Z,0
2017-08-06T01:23:22.746Z,0
2017-08-06T01:24:23.040Z,0
2017-08-06T01:25:22.920Z,0
2017-08-06T01:26:22.752Z,0
2017-08-06T01:27:22.741Z,0
2017-08-06T01:28:23.045Z,0
2017-08-06T01:29:23.050Z,0
2017-08-06T01:30:22.980Z,0
2017-08-06T01:31:25.715Z,0
2017-08-06T01:32:22.748Z,0
2017-08-06T01:33:23.050Z,0
2017-08-06T01:34:23.053Z,0
2017-08-06T01:35:23.067Z,0
2017-08-06T01:36:23.072Z,0
2017-08-06T01:37:23.066Z,0
2017-08-06T01:38:22.461Z,0
2017-08-06T01:39:23.098Z,0
2017-08-06T01:40:23.070Z,0
2017-08-06T01:41:23.077Z,0
2017-08-06T01:42:23.078Z,0
2017-08-06T01:43:22.784Z,0
2017-08-06T01:44:22.475Z,0
2017-08-06T01:45:23.167Z,0
2017-08-06T01:46:22.827Z,0
2017-08-06T01:47:23.084Z,0
2017-08-06T01:48:23.089Z,0
2017-08-06T01:49:22.792Z,0
2017-08-06T01:50:22.784Z,0
2017-08-06T01:51:22.184Z,0
2017-08-06T01:52:23.092Z,0
2017-08-06T01:53:23.095Z,0
2017-08-06T01:54:23.093Z,0
2017-08-06T01:55:22.894Z,0
2017-08-06T01:56:23.101Z,0
2017-08-06T01:57:22.502Z,0
2017-08-06T01:58:23.115Z,0
2017-08-06T01:59:23.123Z,0
2017-08-06T02:00:23.119Z,0
2017-08-06T02:01:26.140Z,0
2017-08-06T02:02:22.814Z,0
2017-08-06T02:03:23.117Z,0
2017-08-06T02:04:22.820Z,0
2017-08-06T02:05:22.973Z,0
2017-08-06T02:06:22.821Z,0
2017-08-06T02:07:23.132Z,0
2017-08-06T02:08:22.859Z,0
2017-08-06T02:09:23.134Z,0
2017-08-06T02:10:22.864Z,0
2017-08-06T02:11:23.136Z,0
2017-08-06T02:12:22.841Z,0
2017-08-06T02:13:22.840Z,0
2017-08-06T02:14:23.143Z,0
2017-08-06T02:15:23.140Z,0
2017-08-06T02:16:22.535Z,0
2017-08-06T02:17:23.200Z,0
2017-08-06T02:18:22.849Z,0
2017-08-06T02:19:23.147Z,0
2017-08-06T02:20:23.152Z,0
2017-08-06T02:21:23.164Z,0
2017-08-06T02:22:23.159Z,0
2017-08-06T02:23:23.164Z,0
2017-08-06T02:24:23.155Z,0
2017-08-06T02:25:23.171Z,0
2017-08-06T02:26:23.168Z,0
2017-08-06T02:27:23.167Z,0
2017-08-06T02:28:23.168Z,0
2017-08-06T02:29:22.863Z,0
2017-08-06T02:30:23.175Z,0
2017-08-06T02:31:23.177Z,0
2017-08-06T02:32:24.523Z,0
2017-08-06T02:33:22.880Z,0
2017-08-06T02:34:22.888Z,0
2017-08-06T02:35:23.411Z,0
2017-08-06T02:36:23.182Z,0
2017-08-06T02:37:22.884Z,0
2017-08-06T02:38:22.881Z,0
2017-08-06T02:39:22.883Z,0
2017-08-06T02:40:22.888Z,0
2017-08-06T02:41:23.186Z,0
2017-08-06T02:42:23.190Z,0
2017-08-06T02:43:23.196Z,0
2017-08-06T02:44:23.217Z,0
2017-08-06T02:45:23.114Z,0
2017-08-06T02:46:22.921Z,0
2017-08-06T02:47:22.959Z,0
2017-08-06T02:48:23.662Z,0
2017-08-06T02:49:23.150Z,0
2017-08-06T02:50:23.632Z,0
2017-08-06T02:51:23.928Z,0
2017-08-06T02:52:24.173Z,0
2017-08-06T02:53:23.206Z,0
2017-08-06T02:54:22.923Z,0
2017-08-06T02:55:22.924Z,0
2017-08-06T02:56:23.222Z,0
2017-08-06T02:57:23.220Z,0
2017-08-06T02:58:23.238Z,0
2017-08-06T02:59:23.224Z,0
2017-08-06T03:00:22.932Z,0
2017-08-06T03:01:22.924Z,0
2017-08-06T03:02:25.434Z,0
2017-08-06T03:03:22.927Z,0
2017-08-06T03:04:22.930Z,0
2017-08-06T03:05:23.233Z,0
2017-08-06T03:06:23.234Z,0
2017-08-06T03:07:22.941Z,0
2017-08-06T03:08:23.246Z,0
2017-08-06T03:09:23.244Z,0
2017-08-06T03:10:23.407Z,0
2017-08-06T03:11:23.247Z,0
2017-08-06T03:12:22.949Z,0
2017-08-06T03:13:22.946Z,0
2017-08-06T03:14:23.249Z,0
2017-08-06T03:15:23.313Z,0
2017-08-06T03:16:23.250Z,0
2017-08-06T03:17:22.851Z,0
2017-08-06T03:18:23.254Z,0
2017-08-06T03:19:22.956Z,0
2017-08-06T03:20:23.087Z,0
2017-08-06T03:21:23.260Z,0
2017-08-06T03:22:23.261Z,0
2017-08-06T03:23:23.262Z,0
2017-08-06T03:24:23.262Z,0
2017-08-06T03:25:23.322Z,4
2017-08-06T03:26:23.269Z,4
2017-08-06T03:27:23.275Z,4
2017-08-06T03:28:23.272Z,0
2017-08-06T03:29:22.979Z,0
2017-08-06T03:30:23.296Z,4
2017-08-06T03:31:23.296Z,0
2017-08-06T03:32:23.679Z,4
2017-08-06T03:33:24.035Z,4
2017-08-06T03:34:23.286Z,4
2017-08-06T03:35:23.766Z,4
2017-08-06T03:36:23.288Z,4
2017-08-06T03:37:23.296Z,8
2017-08-06T03:38:22.985Z,12
2017-08-06T03:39:23.292Z,12
2017-08-06T03:40:23.013Z,12
2017-08-06T03:41:23.305Z,12
2017-08-06T03:42:23.298Z,16
2017-08-06T03:43:22.697Z,16
2017-08-06T03:44:22.995Z,20
2017-08-06T03:45:22.997Z,24
2017-08-06T03:46:23.303Z,28
2017-08-06T03:47:24.614Z,28
2017-08-06T03:48:23.304Z,36
2017-08-06T03:49:23.309Z,40
2017-08-06T03:50:23.318Z,44
2017-08-06T03:51:23.313Z,52
2017-08-06T03:52:23.315Z,56
2017-08-06T03:53:23.310Z,64
2017-08-06T03:54:23.316Z,72
2017-08-06T03:55:23.016Z,80
2017-08-06T03:56:23.332Z,92
2017-08-06T03:57:23.328Z,100
2017-08-06T03:58:23.021Z,108
2017-08-06T03:59:23.328Z,120
2017-08-06T04:00:23.328Z,128
2017-08-06T04:01:23.369Z,144
2017-08-06T04:02:23.333Z,160
2017-08-06T04:03:23.032Z,176
2017-08-06T04:04:23.332Z,192
2017-08-06T04:05:23.336Z,212
2017-08-06T04:06:23.338Z,228
2017-08-06T04:07:23.340Z,248
2017-08-06T04:08:23.343Z,268
2017-08-06T04:09:23.046Z,292
2017-08-06T04:10:23.354Z,320
2017-08-06T04:11:23.049Z,344
2017-08-06T04:12:23.355Z,380
2017-08-06T04:13:23.361Z,408
2017-08-06T04:14:23.352Z,432
2017-08-06T04:15:23.361Z,456
2017-08-06T04:16:23.097Z,484
2017-08-06T04:17:23.357Z,524
2017-08-06T04:18:23.369Z,564
2017-08-06T04:19:23.358Z,600
2017-08-06T04:20:23.076Z,620
2017-08-06T04:21:23.361Z,620
2017-08-06T04:22:23.066Z,608
2017-08-06T04:23:23.369Z,608
2017-08-06T04:24:23.365Z,612
2017-08-06T04:25:23.368Z,608
2017-08-06T04:26:23.377Z,584
2017-08-06T04:27:23.069Z,568
2017-08-06T04:28:23.073Z,576
2017-08-06T04:29:22.774Z,588
2017-08-06T04:30:23.082Z,608
2017-08-06T04:31:23.379Z,628
2017-08-06T04:32:23.387Z,656
2017-08-06T04:33:23.439Z,680
2017-08-06T04:34:23.381Z,716
2017-08-06T04:35:23.083Z,752
2017-08-06T04:36:23.397Z,800
2017-08-06T04:37:23.088Z,836
2017-08-06T04:38:23.394Z,876
2017-08-06T04:39:23.399Z,904
2017-08-06T04:40:23.404Z,924
2017-08-06T04:41:23.396Z,956
2017-08-06T04:42:23.398Z,988
2017-08-06T04:43:23.401Z,1040
2017-08-06T04:44:23.103Z,1100
2017-08-06T04:45:23.408Z,1148
2017-08-06T04:46:23.401Z,1192
2017-08-06T04:47:23.414Z,1228
2017-08-06T04:48:25.360Z,1260
2017-08-06T04:49:23.411Z,1296
2017-08-06T04:50:23.410Z,1352
2017-08-06T04:51:23.423Z,1428
2017-08-06T04:52:23.412Z,1500
2017-08-06T04:53:23.422Z,1564
2017-08-06T04:54:23.125Z,1620
2017-08-06T04:55:23.128Z,1664
2017-08-06T04:56:23.421Z,1720
2017-08-06T04:57:23.417Z,1804
2017-08-06T04:58:23.428Z,1912
2017-08-06T04:59:23.431Z,2020
2017-08-06T05:00:23.133Z,2144
2017-08-06T05:01:23.441Z,2260
2017-08-06T05:02:23.130Z,2360
2017-08-06T05:03:23.489Z,2456
2017-08-06T05:04:23.447Z,2544
2017-08-06T05:05:23.137Z,2620
2017-08-06T05:06:23.453Z,2676
2017-08-06T05:07:23.443Z,2712
2017-08-06T05:08:23.145Z,2728
2017-08-06T05:09:23.446Z,2756
2017-08-06T05:10:22.843Z,2808
2017-08-06T05:11:22.851Z,2872
2017-08-06T05:12:23.454Z,2924
2017-08-06T05:13:23.462Z,3024
2017-08-06T05:14:23.456Z,3112
2017-08-06T05:15:23.456Z,3176
2017-08-06T05:16:23.470Z,3280
2017-08-06T05:17:23.172Z,3228
2017-08-06T05:18:26.183Z,3220
2017-08-06T05:19:23.463Z,3216
2017-08-06T05:20:23.473Z,3224
2017-08-06T05:21:23.490Z,3212
2017-08-06T05:22:23.178Z,3208
2017-08-06T05:23:23.479Z,3240
2017-08-06T05:24:23.483Z,3308
2017-08-06T05:25:23.474Z,3212
2017-08-06T05:26:23.489Z,3148
2017-08-06T05:27:23.482Z,3124
2017-08-06T05:28:23.497Z,3124
2017-08-06T05:29:23.485Z,3128
2017-08-06T05:30:23.490Z,3136
2017-08-06T05:31:23.509Z,3160
2017-08-06T05:32:23.192Z,3168
2017-08-06T05:33:23.893Z,3188
2017-08-06T05:34:23.506Z,3224
2017-08-06T05:35:23.500Z,3296
2017-08-06T05:36:22.905Z,3380
2017-08-06T05:37:23.201Z,3528
2017-08-06T05:38:23.214Z,3708
2017-08-06T05:39:23.509Z,4548
2017-08-06T05:40:23.507Z,4244
2017-08-06T05:41:23.219Z,4448
2017-08-06T05:42:23.533Z,4716
2017-08-06T05:43:23.222Z,5396
2017-08-06T05:44:23.519Z,7036
2017-08-06T05:45:23.225Z,5064
2017-08-06T05:46:23.526Z,4500
2017-08-06T05:47:23.235Z,4044
2017-08-06T05:48:23.228Z,4044
2017-08-06T05:49:23.236Z,5428
2017-08-06T05:50:22.638Z,4376
2017-08-06T05:51:23.248Z,3720
2017-08-06T05:52:23.561Z,4300
2017-08-06T05:53:23.564Z,4628
2017-08-06T05:54:23.558Z,4072
2017-08-06T05:55:23.557Z,4040
2017-08-06T05:56:23.556Z,4040
2017-08-06T05:57:23.560Z,4256
2017-08-06T05:58:23.562Z,4516
2017-08-06T05:59:23.270Z,4956
2017-08-06T06:00:22.968Z,5064
2017-08-06T06:01:23.575Z,5464
2017-08-06T06:02:23.578Z,5292
2017-08-06T06:03:23.577Z,5796
2017-08-06T06:04:23.643Z,6260
2017-08-06T06:05:23.584Z,6544
2017-08-06T06:06:23.588Z,6744
2017-08-06T06:07:22.995Z,6660
2017-08-06T06:08:23.600Z,6828
2017-08-06T06:09:23.304Z,14028
2017-08-06T06:10:23.313Z,7480
2017-08-06T06:11:23.627Z,8480
2017-08-06T06:12:23.616Z,8668
2017-08-06T06:13:23.635Z,8996
2017-08-06T06:14:23.631Z,9456
2017-08-06T06:15:23.618Z,9732
2017-08-06T06:16:23.627Z,10376
2017-08-06T06:17:23.621Z,11172
2017-08-06T06:18:23.328Z,11748
2017-08-06T06:19:27.201Z,10012
2017-08-06T06:20:23.637Z,12696
2017-08-06T06:21:23.641Z,10556
2017-08-06T06:22:23.348Z,7164
2017-08-06T06:23:23.652Z,8572
2017-08-06T06:24:23.672Z,10544
2017-08-06T06:25:23.701Z,9892
2017-08-06T06:26:23.686Z,5484
2017-08-06T06:27:23.383Z,8520
2017-08-06T06:28:23.683Z,6616
2017-08-06T06:29:23.691Z,7532
2017-08-06T06:30:23.683Z,7416
2017-08-06T06:31:23.703Z,6104
2017-08-06T06:32:23.705Z,6156
2017-08-06T06:33:23.717Z,8616
2017-08-06T06:34:23.775Z,8684
2017-08-06T06:35:23.408Z,11876
2017-08-06T06:36:23.716Z,12524
2017-08-06T06:37:23.731Z,12980
2017-08-06T06:38:23.415Z,12940
2017-08-06T06:39:23.726Z,12968
2017-08-06T06:40:24.507Z,9072
2017-08-06T06:41:23.755Z,7320
2017-08-06T06:42:23.744Z,12776
2017-08-06T06:43:23.755Z,12260
2017-08-06T06:44:23.756Z,11020
2017-08-06T06:45:23.757Z,9552
2017-08-06T06:46:23.780Z,12684
2017-08-06T06:47:23.791Z,12304
2017-08-06T06:48:23.782Z,12420
2017-08-06T06:49:25.887Z,12584
2017-08-06T06:50:23.786Z,12432
2017-08-06T06:51:23.493Z,12612
2017-08-06T06:52:23.495Z,12360
2017-08-06T06:53:23.822Z,12228
2017-08-06T06:54:23.821Z,12020
2017-08-06T06:55:23.512Z,12556
2017-08-06T06:56:23.825Z,13028
2017-08-06T06:57:23.530Z,9200
2017-08-06T06:58:23.529Z,8180
2017-08-06T06:59:23.844Z,5432
2017-08-06T07:00:23.255Z,6676
2017-08-06T07:01:23.553Z,10924
2017-08-06T07:02:23.876Z,12780
2017-08-06T07:03:23.870Z,13016
2017-08-06T07:04:26.265Z,13056
2017-08-06T07:05:23.873Z,12936
2017-08-06T07:06:23.897Z,12808
2017-08-06T07:07:23.586Z,11616
2017-08-06T07:08:23.890Z,13516
2017-08-06T07:09:23.300Z,13192
2017-08-06T07:10:23.927Z,13796
2017-08-06T07:11:23.921Z,14120
2017-08-06T07:12:23.923Z,11800
2017-08-06T07:13:23.922Z,15456
2017-08-06T07:14:23.935Z,13100
2017-08-06T07:15:23.934Z,13976
2017-08-06T07:16:23.946Z,10764
2017-08-06T07:17:23.956Z,11580
2017-08-06T07:18:23.956Z,16448
2017-08-06T07:19:23.963Z,15588
2017-08-06T07:20:24.648Z,16128
2017-08-06T07:21:23.979Z,15360
2017-08-06T07:22:23.993Z,16896
2017-08-06T07:23:24.001Z,15840
2017-08-06T07:24:23.690Z,11512
2017-08-06T07:25:23.990Z,12956
2017-08-06T07:26:24.001Z,15516
2017-08-06T07:27:23.709Z,15536
2017-08-06T07:28:24.013Z,15516
2017-08-06T07:29:24.030Z,15384
2017-08-06T07:30:23.747Z,15372
2017-08-06T07:31:24.040Z,13892
2017-08-06T07:32:24.042Z,15356
2017-08-06T07:33:24.057Z,14976
2017-08-06T07:34:23.776Z,10748
2017-08-06T07:35:23.820Z,15416
2017-08-06T07:36:23.801Z,15344
2017-08-06T07:37:23.803Z,14644
2017-08-06T07:38:24.100Z,14928
2017-08-06T07:39:23.799Z,14588
2017-08-06T07:40:24.106Z,14444
2017-08-06T07:41:24.113Z,14712
2017-08-06T07:42:24.120Z,14268
2017-08-06T07:43:24.170Z,14104
2017-08-06T07:44:24.152Z,14912
2017-08-06T07:45:24.160Z,13680
2017-08-06T07:46:24.164Z,14376
2017-08-06T07:47:23.570Z,14880
2017-08-06T07:48:24.184Z,14864
2017-08-06T07:49:23.892Z,14516
2017-08-06T07:50:25.248Z,13700
2017-08-06T07:51:24.206Z,14136
2017-08-06T07:52:23.600Z,12924
2017-08-06T07:53:23.917Z,11852
2017-08-06T07:54:24.259Z,11572
2017-08-06T07:55:23.964Z,11388
2017-08-06T07:56:24.243Z,11160
2017-08-06T07:57:23.955Z,11496
2017-08-06T07:58:24.261Z,12172
2017-08-06T07:59:24.263Z,12524
2017-08-06T08:00:23.970Z,12692
2017-08-06T08:01:23.981Z,12512
2017-08-06T08:02:24.289Z,13400
2017-08-06T08:03:24.295Z,12684
2017-08-06T08:04:24.313Z,13632
2017-08-06T08:05:24.065Z,13760
2017-08-06T08:06:24.020Z,13256
2017-08-06T08:07:24.328Z,13288
2017-08-06T08:08:24.053Z,13516
2017-08-06T08:09:24.337Z,13236
2017-08-06T08:10:24.041Z,13264
2017-08-06T08:11:24.047Z,13204
2017-08-06T08:12:24.068Z,12704
2017-08-06T08:13:24.388Z,13112
2017-08-06T08:14:23.790Z,12608
2017-08-06T08:15:24.405Z,12676
2017-08-06T08:16:23.789Z,12636
2017-08-06T08:17:23.803Z,12648
2017-08-06T08:18:24.402Z,13076
2017-08-06T08:19:24.116Z,13296
2017-08-06T08:20:29.331Z,13264
2017-08-06T08:21:24.425Z,13092
2017-08-06T08:22:24.137Z,13048
2017-08-06T08:23:24.144Z,13020
2017-08-06T08:24:24.172Z,10884
2017-08-06T08:25:24.468Z,12976
2017-08-06T08:26:24.164Z,12816
2017-08-06T08:27:24.473Z,11468
2017-08-06T08:28:24.180Z,11756
2017-08-06T08:29:24.188Z,11148
2017-08-06T08:30:24.199Z,9924
2017-08-06T08:31:24.527Z,12160
2017-08-06T08:32:24.231Z,9792
2017-08-06T08:33:24.529Z,6988
2017-08-06T08:34:24.537Z,12016
2017-08-06T08:35:24.542Z,8556
2017-08-06T08:36:24.256Z,11992
2017-08-06T08:37:24.570Z,12324
2017-08-06T08:38:24.565Z,9180
2017-08-06T08:39:24.591Z,6944
2017-08-06T08:40:24.585Z,13148
2017-08-06T08:41:24.282Z,9120
2017-08-06T08:42:24.000Z,11040
2017-08-06T08:43:24.610Z,10620
2017-08-06T08:44:24.639Z,10416
2017-08-06T08:45:24.628Z,11412
2017-08-06T08:46:24.630Z,11720
2017-08-06T08:47:24.634Z,11748
2017-08-06T08:48:24.646Z,11400
2017-08-06T08:49:24.344Z,10660
2017-08-06T08:50:24.349Z,11008
2017-08-06T08:51:24.662Z,11208
2017-08-06T08:52:24.376Z,9960
2017-08-06T08:53:24.378Z,9464
2017-08-06T08:54:24.376Z,6088
2017-08-06T08:55:24.387Z,5848
2017-08-06T08:56:24.690Z,5992
2017-08-06T08:57:24.700Z,6708
2017-08-06T08:58:24.711Z,11020
2017-08-06T08:59:24.712Z,10100
2017-08-06T09:00:24.720Z,9520
2017-08-06T09:01:24.731Z,10580
2017-08-06T09:02:24.741Z,9768
2017-08-06T09:03:24.751Z,10976
2017-08-06T09:04:24.753Z,9808
2017-08-06T09:05:24.820Z,11088
2017-08-06T09:06:25.256Z,11732
2017-08-06T09:07:24.480Z,11816
2017-08-06T09:08:24.483Z,11404
2017-08-06T09:09:24.777Z,11900
2017-08-06T09:10:24.790Z,11816
2017-08-06T09:11:24.788Z,8900
2017-08-06T09:12:24.799Z,7052
2017-08-06T09:13:24.818Z,8532
2017-08-06T09:14:24.521Z,11340
2017-08-06T09:15:24.817Z,9288
2017-08-06T09:16:24.537Z,10816
2017-08-06T09:17:24.257Z,11304
2017-08-06T09:18:24.833Z,10444
2017-08-06T09:19:24.850Z,11308
2017-08-06T09:20:24.257Z,9328
2017-08-06T09:21:26.899Z,5860
2017-08-06T09:22:24.869Z,5772
2017-08-06T09:23:24.877Z,5800
2017-08-06T09:24:24.566Z,5792
2017-08-06T09:25:24.879Z,5660
2017-08-06T09:26:24.888Z,6352
2017-08-06T09:27:24.587Z,7456
2017-08-06T09:28:24.887Z,5596
2017-08-06T09:29:24.887Z,5704
2017-08-06T09:30:24.897Z,5568
2017-08-06T09:31:24.596Z,5424
2017-08-06T09:32:24.598Z,5388
2017-08-06T09:33:24.900Z,5372
2017-08-06T09:34:24.614Z,5476
2017-08-06T09:35:24.619Z,5660
2017-08-06T09:36:27.667Z,6404
2017-08-06T09:37:24.626Z,11128
2017-08-06T09:38:24.935Z,11336
2017-08-06T09:39:24.933Z,11280
2017-08-06T09:40:24.331Z,11244
2017-08-06T09:41:24.942Z,11240
2017-08-06T09:42:24.946Z,11824
2017-08-06T09:43:24.042Z,10116
2017-08-06T09:44:24.679Z,11512
2017-08-06T09:45:24.657Z,11064
2017-08-06T09:46:24.364Z,10448
2017-08-06T09:47:24.669Z,9760
2017-08-06T09:48:24.974Z,12092
2017-08-06T09:49:24.374Z,11984
2017-08-06T09:50:24.695Z,11096
2017-08-06T09:51:25.426Z,11408
2017-08-06T09:52:24.993Z,11736
2017-08-06T09:53:24.395Z,7968
2017-08-06T09:54:25.011Z,8020
2017-08-06T09:55:24.400Z,7140
2017-08-06T09:56:24.471Z,8904
2017-08-06T09:57:25.019Z,10568
2017-08-06T09:58:25.032Z,10624
2017-08-06T09:59:24.730Z,7720
2017-08-06T10:00:25.034Z,7956
2017-08-06T10:01:24.738Z,7796
2017-08-06T10:02:25.045Z,8116
2017-08-06T10:03:24.751Z,8788
2017-08-06T10:04:25.086Z,9292
2017-08-06T10:05:24.796Z,10128
2017-08-06T10:06:25.082Z,8044
2017-08-06T10:07:24.471Z,8144
2017-08-06T10:08:25.095Z,8020
2017-08-06T10:09:25.093Z,8104
2017-08-06T10:10:25.086Z,8228
2017-08-06T10:11:24.789Z,8360
2017-08-06T10:12:24.798Z,8596
2017-08-06T10:13:24.794Z,10140
2017-08-06T10:14:25.098Z,10312
2017-08-06T10:15:25.111Z,10740
2017-08-06T10:16:25.116Z,10420
2017-08-06T10:17:24.818Z,10480
2017-08-06T10:18:25.128Z,10500
2017-08-06T10:19:25.136Z,10460
2017-08-06T10:20:25.129Z,10752
2017-08-06T10:21:24.221Z,11444
2017-08-06T10:22:26.502Z,11500
2017-08-06T10:23:24.849Z,11776
2017-08-06T10:24:24.868Z,12292
2017-08-06T10:25:25.178Z,12160
2017-08-06T10:26:25.161Z,12280
2017-08-06T10:27:25.161Z,12320
2017-08-06T10:28:24.881Z,12520
2017-08-06T10:29:25.169Z,13700
2017-08-06T10:30:25.196Z,13452
2017-08-06T10:31:25.180Z,12552
2017-08-06T10:32:24.888Z,13216
2017-08-06T10:33:25.191Z,12556
2017-08-06T10:34:25.213Z,11868
2017-08-06T10:35:25.204Z,11020
2017-08-06T10:36:25.211Z,11072
2017-08-06T10:37:25.715Z,11556
2017-08-06T10:38:24.926Z,12088
2017-08-06T10:39:25.226Z,11312
2017-08-06T10:40:25.224Z,11720
2017-08-06T10:41:25.242Z,12396
2017-08-06T10:42:25.234Z,13344
2017-08-06T10:43:24.950Z,14468
2017-08-06T10:44:25.255Z,13852
2017-08-06T10:45:25.256Z,13952
2017-08-06T10:46:25.277Z,13188
2017-08-06T10:47:24.664Z,13260
2017-08-06T10:48:25.266Z,12408
2017-08-06T10:49:24.970Z,12560
2017-08-06T10:50:25.304Z,11424
2017-08-06T10:51:24.987Z,11196
2017-08-06T10:52:25.744Z,11524
2017-08-06T10:53:25.299Z,11088
2017-08-06T10:54:25.001Z,10464
2017-08-06T10:55:25.309Z,9792
2017-08-06T10:56:25.026Z,9600
2017-08-06T10:57:25.312Z,10600
2017-08-06T10:58:25.325Z,11272
2017-08-06T10:59:25.324Z,10920
2017-08-06T11:00:25.330Z,10392
2017-08-06T11:01:24.431Z,10360
2017-08-06T11:02:25.347Z,12156
2017-08-06T11:03:25.047Z,12248
2017-08-06T11:04:25.356Z,11872
2017-08-06T11:05:25.359Z,10396
2017-08-06T11:06:25.363Z,9648
2017-08-06T11:07:28.086Z,9944
2017-08-06T11:08:25.378Z,9440
2017-08-06T11:09:25.396Z,8716
2017-08-06T11:10:25.408Z,8192
2017-08-06T11:11:25.115Z,8088
2017-08-06T11:12:25.446Z,8248
2017-08-06T11:13:25.106Z,8688
2017-08-06T11:14:25.110Z,8204
2017-08-06T11:15:25.433Z,8472
2017-08-06T11:16:25.426Z,10560
2017-08-06T11:17:25.429Z,9756
2017-08-06T11:18:25.126Z,9596
2017-08-06T11:19:25.140Z,9432
2017-08-06T11:20:25.142Z,8900
2017-08-06T11:21:25.438Z,9336
2017-08-06T11:22:24.850Z,9100
2017-08-06T11:23:26.958Z,9356
2017-08-06T11:24:25.459Z,8584
2017-08-06T11:25:25.191Z,8924
2017-08-06T11:26:24.865Z,9052
2017-08-06T11:27:24.861Z,8440
2017-08-06T11:28:25.475Z,8480
2017-08-06T11:29:24.873Z,8592
2017-08-06T11:30:25.485Z,8964
2017-08-06T11:31:25.195Z,8668
2017-08-06T11:32:25.489Z,8568
2017-08-06T11:33:25.496Z,9324
2017-08-06T11:34:25.500Z,9560
2017-08-06T11:35:25.211Z,8872
2017-08-06T11:36:25.507Z,8648
2017-08-06T11:37:25.524Z,9280
2017-08-06T11:38:26.523Z,9752
2017-08-06T11:39:25.538Z,8940
2017-08-06T11:40:25.251Z,9176
2017-08-06T11:41:25.540Z,8972
2017-08-06T11:42:25.544Z,10056
2017-08-06T11:43:25.544Z,8980
2017-08-06T11:44:25.268Z,8072
2017-08-06T11:45:25.277Z,7916
2017-08-06T11:46:25.274Z,10196
2017-08-06T11:47:25.597Z,9756
2017-08-06T11:48:25.565Z,9580
2017-08-06T11:49:25.289Z,8988
2017-08-06T11:50:25.279Z,8224
2017-08-06T11:51:25.288Z,7488
2017-08-06T11:52:25.602Z,7396
2017-08-06T11:53:25.801Z,6964
2017-08-06T11:54:25.309Z,7204
2017-08-06T11:55:25.314Z,7032
2017-08-06T11:56:25.313Z,6828
2017-08-06T11:57:25.014Z,7824
2017-08-06T11:58:25.623Z,9192
2017-08-06T11:59:25.332Z,9404
2017-08-06T12:00:25.329Z,9408
2017-08-06T12:01:25.337Z,9192
2017-08-06T12:02:25.340Z,8892
2017-08-06T12:03:25.646Z,9356
2017-08-06T12:04:25.351Z,9556
2017-08-06T12:05:25.650Z,9532
2017-08-06T12:06:25.364Z,9436
2017-08-06T12:07:25.057Z,9264
2017-08-06T12:08:25.128Z,9032
2017-08-06T12:09:25.389Z,7560
2017-08-06T12:10:25.696Z,7564
2017-08-06T12:11:25.400Z,8652
2017-08-06T12:12:25.709Z,8708
2017-08-06T12:13:25.401Z,8652
2017-08-06T12:14:25.394Z,8644
2017-08-06T12:15:24.796Z,8836
2017-08-06T12:16:25.399Z,9156
2017-08-06T12:17:25.102Z,9472
2017-08-06T12:18:25.716Z,9812
2017-08-06T12:19:25.731Z,10324
2017-08-06T12:20:25.723Z,9656
2017-08-06T12:21:25.741Z,11216
2017-08-06T12:22:25.730Z,11256
2017-08-06T12:23:27.392Z,11436
2017-08-06T12:24:25.756Z,10140
2017-08-06T12:25:25.465Z,11068
2017-08-06T12:26:25.446Z,11584
2017-08-06T12:27:25.765Z,9828
2017-08-06T12:28:25.470Z,10164
2017-08-06T12:29:25.458Z,11564
2017-08-06T12:30:25.165Z,9948
2017-08-06T12:31:25.783Z,8780
2017-08-06T12:32:25.803Z,9872
2017-08-06T12:33:25.780Z,9832
2017-08-06T12:34:25.791Z,9568
2017-08-06T12:35:25.792Z,9492
2017-08-06T12:36:25.193Z,9152
2017-08-06T12:37:25.796Z,9148
2017-08-06T12:38:25.208Z,9424
2017-08-06T12:39:25.820Z,9608
2017-08-06T12:40:25.510Z,9560
2017-08-06T12:41:25.534Z,9296
2017-08-06T12:42:25.224Z,9984
2017-08-06T12:43:25.532Z,10496
2017-08-06T12:44:25.873Z,9888
2017-08-06T12:45:25.533Z,9832
2017-08-06T12:46:25.881Z,9732
2017-08-06T12:47:25.565Z,9528
2017-08-06T12:48:25.287Z,8748
2017-08-06T12:49:25.574Z,8104
2017-08-06T12:50:25.573Z,8412
2017-08-06T12:51:25.582Z,8476
2017-08-06T12:52:25.574Z,8048
2017-08-06T12:53:25.575Z,8608
2017-08-06T12:54:25.951Z,9320
2017-08-06T12:55:25.285Z,9724
2017-08-06T12:56:25.586Z,9592
2017-08-06T12:57:25.599Z,9080
2017-08-06T12:58:25.646Z,8864
2017-08-06T12:59:25.624Z,8372
2017-08-06T13:00:25.311Z,7764
2017-08-06T13:01:25.612Z,8136
2017-08-06T13:02:25.650Z,9220
2017-08-06T13:03:25.346Z,8928
2017-08-06T13:04:26.769Z,8448
2017-08-06T13:05:25.958Z,9004
2017-08-06T13:06:25.944Z,11132
2017-08-06T13:07:25.653Z,10576
2017-08-06T13:08:25.963Z,10260
2017-08-06T13:09:26.007Z,10812
2017-08-06T13:10:25.354Z,10972
2017-08-06T13:11:25.664Z,11136
2017-08-06T13:12:25.968Z,11108
2017-08-06T13:13:25.371Z,11148
2017-08-06T13:14:25.977Z,11096
2017-08-06T13:15:25.984Z,10940
2017-08-06T13:16:25.991Z,10844
2017-08-06T13:17:25.686Z,10752
2017-08-06T13:18:25.693Z,10700
2017-08-06T13:19:25.721Z,10500
2017-08-06T13:20:25.720Z,10412
2017-08-06T13:21:25.721Z,10196
2017-08-06T13:22:26.027Z,10056
2017-08-06T13:23:25.727Z,9884
2017-08-06T13:24:29.782Z,9140
2017-08-06T13:25:26.037Z,10228
2017-08-06T13:26:26.038Z,10352
2017-08-06T13:27:26.041Z,10300
2017-08-06T13:28:25.749Z,10164
2017-08-06T13:29:26.055Z,10016
2017-08-06T13:30:25.762Z,9812
2017-08-06T13:31:25.783Z,9612
2017-08-06T13:32:25.764Z,9320
2017-08-06T13:33:25.480Z,8924
2017-08-06T13:34:26.078Z,8504